Latest Weather Observations for Thredbo Top Station

IDN60801

Issued at 7:02 pm EST Wednesday 29 July 2015 (issued every 30 minutes, with the page automatically refreshed every 10 minutes)

About weather observations | Map of weather stations | Latest weather observations for NSW | Other Formats
Station Details ID: 071032 Name: THREDBO AWS Lat: -36.49 Lon: 148.29 Height: 1957.0 m
Data from the previous 72 hours. | See also: Recent months at Thredbo Top Station
Date/Time
EST
Temp
°C
App
Temp
°C
Dew
Point
Rel
Hum
%
Delta-T
°C
Wind Press
QNH
hPa
Press
MSL
hPa
Rain
since 9 am
mm
Dir
 
Spd
km/h
Gust
km/h
Spd
kts
Gust
kts
29/07:00pm -3.5 -12.1 -3.8 98 -0.1 NW 32 39 17 21 - - 0.0
29/06:30pm -3.1 -11.6 -3.4 98 0.0 NW 32 37 17 20 - - 0.0
29/06:00pm -3.6 -10.6 -3.9 98 -0.1 NNW 24 30 13 16 - - 0.0
29/05:30pm -3.3 -10.7 -3.6 98 0.0 NNW 26 30 14 16 - - 0.0
29/05:00pm -3.3 -11.1 -3.4 99 -0.1 NNW 28 33 15 18 - - 0.0
29/04:30pm -3.1 -10.4 -3.2 99 -0.1 NNW 26 32 14 17 - - 0.0
29/04:00pm -2.4 -10.0 -2.5 99 -0.1 NW 28 35 15 19 - - 0.0
29/03:30pm -2.3 -11.3 -2.4 99 -0.1 NNW 35 41 19 22 - - 0.0
29/03:02pm -2.4 -11.4 -2.5 99 -0.1 NNW 35 48 19 26 - - 0.0
29/03:00pm -2.4 -11.4 -2.5 99 -0.1 NNW 35 48 19 26 - - 0.0
29/02:59pm -2.4 -11.4 -2.5 99 -0.1 NNW 35 48 19 26 - - 0.0
29/02:30pm -2.1 -10.5 -2.2 99 -0.1 NW 32 41 17 22 - - 0.0
29/02:00pm -1.7 -9.3 -1.8 99 0.0 NW 28 33 15 18 - - 0.0
29/01:30pm -1.7 -10.0 -1.8 99 0.0 NW 32 39 17 21 - - 0.0
29/01:00pm -1.5 -8.6 -1.6 99 0.0 NW 26 37 14 20 - - 0.0
29/12:30pm -1.6 -9.1 -1.7 99 0.0 NW 28 35 15 19 - - 0.0
29/12:00pm -1.6 -8.8 -1.7 99 0.0 NW 26 33 14 18 - - 0.0
29/11:30am -1.6 -8.8 -1.7 99 0.0 NW 26 35 14 19 - - 0.0
29/11:00am -1.7 -8.9 -1.8 99 0.0 WNW 26 30 14 16 - - 0.0
29/10:30am -2.2 -8.3 -2.3 99 -0.1 WNW 20 24 11 13 - - 0.0
29/10:00am -2.4 -6.8 -2.5 99 -0.1 NW 11 15 6 8 - - 0.0
29/09:30am -2.8 -7.6 -2.9 99 -0.1 WNW 13 15 7 8 - - 0.0
29/09:00am -3.3 -7.8 -3.4 99 -0.1 WNW 11 15 6 8 - - 0.6
29/08:30am -3.4 -9.1 -3.5 99 -0.1 WNW 17 19 9 10 - - 0.6
29/08:00am -3.7 -9.4 -3.8 99 -0.1 WNW 17 19 9 10 - - 0.6
29/07:30am -3.7 -9.0 -4.0 98 -0.1 WNW 15 17 8 9 - - 0.6
29/07:00am -4.1 -9.9 -4.4 98 -0.1 WNW 17 19 9 10 - - 0.6
29/06:30am -4.4 -10.2 -4.7 98 -0.1 WNW 17 19 9 10 - - 0.6
29/06:00am -5.2 -9.9 -5.5 98 -0.1 WNW 11 19 6 10 - - 0.6
29/05:30am -5.1 -9.5 -5.4 98 -0.1 WNW 9 15 5 8 - - 0.6
29/05:00am -4.9 -9.2 -5.2 98 -0.1 WNW 9 13 5 7 - - 0.6
29/04:30am -5.2 -9.6 -5.5 98 -0.1 WNW 9 11 5 6 - - 0.6
29/04:00am -5.0 -9.7 -5.3 98 -0.1 WNW 11 15 6 8 - - 0.6
29/03:30am -5.0 -9.3 -5.1 99 -0.2 WNW 9 13 5 7 - - 0.6
29/03:00am -4.8 -9.1 -4.9 99 -0.2 WNW 9 13 5 7 - - 0.6
29/02:30am -3.9 -6.4 -4.0 99 -0.1 CALM 0 0 0 0 - - 0.6
29/02:00am -4.6 -7.9 -4.7 99 -0.2 WNW 4 6 2 3 - - 0.6
29/01:30am -3.5 -6.3 -3.6 99 -0.1 WNW 2 6 1 3 - - 0.6
29/01:00am -3.0 -6.2 -3.1 99 -0.1 WNW 4 6 2 3 - - 0.6
29/12:30am -3.2 -6.8 -3.3 99 -0.1 WNW 6 9 3 5 - - 0.6
29/12:00am -3.2 -6.0 -3.5 98 0.0 WNW 2 4 1 2 - - 0.6
 
Date/Time
EST
Temp
°C
App
Temp
°C
Dew
Point
Rel
Hum
%
Delta-T
°C
Wind Press
QNH
hPa
Press
MSL
hPa
Rain
since 9 am
mm
Dir
 
Spd
km/h
Gust
km/h
Spd
kts
Gust
kts
28/11:30pm -4.0 -6.5 -4.3 98 -0.1 CALM 0 4 0 2 - - 0.6
28/11:00pm -4.0 -6.9 -4.1 99 -0.1 WNW 2 7 1 4 - - 0.6
28/10:30pm -4.1 -6.6 -4.2 99 -0.1 CALM 0 6 0 3 - - 0.6
28/10:00pm -3.6 -6.4 -3.7 99 -0.1 WNW 2 7 1 4 - - 0.6
28/09:30pm -3.7 -7.9 -3.8 99 -0.1 WNW 9 13 5 7 - - 0.6
28/09:00pm -3.4 -7.2 -3.5 99 -0.1 SW 7 15 4 8 - - 0.6
28/08:30pm -3.4 -7.2 -3.5 99 -0.1 W 7 11 4 6 - - 0.6
28/08:00pm -3.3 -8.2 -3.4 99 -0.1 WSW 13 19 7 10 - - 0.6
28/07:30pm -3.0 -6.5 -3.1 99 -0.1 WSW 6 17 3 9 - - 0.6
28/07:00pm -3.0 -7.9 -3.1 99 -0.1 SW 13 19 7 10 - - 0.6
28/06:30pm -2.9 -7.8 -3.0 99 -0.1 WSW 13 20 7 11 - - 0.6
28/06:00pm -2.9 -8.9 -3.0 99 -0.1 W 19 26 10 14 - - 0.6
28/05:30pm -2.8 -8.0 -2.9 99 -0.1 WSW 15 26 8 14 - - 0.6
28/05:00pm -2.7 -8.3 -2.8 99 -0.1 WSW 17 26 9 14 - - 0.6
28/04:30pm -2.7 -10.0 -2.8 99 -0.1 WSW 26 35 14 19 - - 0.6
28/04:00pm -2.7 -10.8 -2.8 99 -0.1 W 30 43 16 23 - - 0.6
28/03:30pm -2.4 -10.0 -2.5 99 -0.1 WSW 28 35 15 19 - - 0.6
28/03:00pm -2.4 -10.0 -2.5 99 -0.1 WSW 28 37 15 20 - - 0.6
28/02:30pm -2.6 -10.3 -2.7 99 -0.1 W 28 41 15 22 - - 0.6
28/02:00pm -2.3 -9.5 -2.4 99 -0.1 WSW 26 37 14 20 - - 0.6
28/01:30pm -2.3 -9.9 -2.4 99 -0.1 W 28 35 15 19 - - 0.6
28/01:00pm -2.2 -9.4 -2.3 99 -0.1 WSW 26 33 14 18 - - 0.6
28/12:30pm -2.4 -10.8 -2.5 99 -0.1 WSW 32 39 17 21 - - 0.6
28/12:00pm -2.3 -10.7 -2.4 99 -0.1 WSW 32 39 17 21 - - 0.6
28/11:30am -2.3 -9.9 -2.4 99 -0.1 SW 28 35 15 19 - - 0.6
28/11:00am -2.3 -9.9 -2.4 99 -0.1 WSW 28 35 15 19 - - 0.6
28/10:30am -2.6 -9.5 -2.7 99 -0.1 SW 24 33 13 18 - - 0.6
28/10:00am -2.5 -9.8 -2.6 99 -0.1 SW 26 33 14 18 - - 0.0
28/09:30am -2.5 -10.2 -2.6 99 -0.1 SW 28 35 15 19 - - 0.0
28/09:00am -3.1 -10.8 -3.2 99 -0.1 SW 28 35 15 19 - - 0.0
28/08:30am -3.2 -10.9 -3.3 99 -0.1 SW 28 35 15 19 - - 0.0
28/08:00am -3.2 -10.6 -3.3 99 -0.1 SW 26 37 14 20 - - 0.0
28/07:30am -3.3 -10.7 -3.4 99 -0.1 SW 26 33 14 18 - - 0.0
28/07:00am -3.4 -10.4 -3.5 99 -0.1 SW 24 32 13 17 - - 0.0
28/06:30am -3.5 -11.3 -3.6 99 -0.1 SW 28 39 15 21 - - 0.0
28/06:00am -3.6 -12.1 -3.7 99 -0.1 SW 32 44 17 24 - - 0.0
28/05:30am -3.6 -13.1 -3.7 99 -0.1 SW 37 48 20 26 - - 0.0
28/05:00am -3.4 -11.9 -3.5 99 -0.1 SW 32 43 17 23 - - 0.0
28/04:30am -3.5 -11.7 -3.8 98 -0.1 SW 30 43 16 23 - - 0.0
28/04:00am -3.8 -12.6 -4.1 98 -0.1 SW 33 46 18 25 - - 0.0
28/03:30am -4.2 -13.0 -4.5 98 -0.1 WSW 33 46 18 25 - - 0.0
28/03:00am -4.1 -12.7 -4.4 98 -0.1 WSW 32 44 17 24 - - 0.0
28/02:30am -4.4 -13.1 -4.7 98 -0.1 SW 32 46 17 25 - - 0.0
28/02:05am -4.5 -12.8 -4.8 98 -0.1 WSW 30 48 16 26 - - 0.0
28/02:00am -4.5 -13.4 -4.8 98 -0.1 WSW 33 48 18 26 - - 0.0
28/01:37am -4.6 -12.9 -4.9 98 -0.1 WSW 30 48 16 26 - - 0.0
28/01:30am -4.6 -12.5 -4.9 98 -0.1 WSW 28 43 15 23 - - 0.0
28/01:00am -4.7 -13.6 -5.0 98 -0.1 WSW 33 52 18 28 - - 0.0
28/12:54am -4.7 -13.4 -5.0 98 -0.1 W 32 50 17 27 - - 0.0
28/12:30am -4.7 -13.0 -5.0 98 -0.1 WSW 30 46 16 25 - - 0.0
28/12:04am -4.7 -13.0 -5.0 98 -0.1 WSW 30 56 16 30 - - 0.0
28/12:00am -4.7 -13.0 -5.0 98 -0.1 WSW 30 46 16 25 - - 0.0
 
Date/Time
EST
Temp
°C
App
Temp
°C
Dew
Point
Rel
Hum
%
Delta-T
°C
Wind Press
QNH
hPa
Press
MSL
hPa
Rain
since 9 am
mm
Dir
 
Spd
km/h
Gust
km/h
Spd
kts
Gust
kts
27/11:30pm -4.8 -12.7 -5.1 98 -0.1 W 28 48 15 26 - - 0.0
27/11:04pm -4.8 -13.1 -5.1 98 -0.1 W 30 48 16 26 - - 0.0
27/11:00pm -4.8 -13.5 -5.1 98 -0.1 W 32 48 17 26 - - 0.0
27/10:50pm -4.8 -13.5 -5.1 98 -0.1 W 32 50 17 27 - - 0.0
27/10:30pm -4.7 -12.2 -5.0 98 -0.1 W 26 37 14 20 - - 0.0
27/10:00pm -4.6 -12.5 -4.9 98 -0.1 WSW 28 46 15 25 - - 0.0
27/09:34pm -4.5 -12.4 -4.8 98 -0.1 W 28 46 15 25 - - 0.0
27/09:30pm -4.4 -11.5 -4.7 98 -0.1 W 24 37 13 20 - - 0.0
27/09:08pm -4.5 -12.4 -4.8 98 -0.1 W 28 48 15 26 - - 0.0
27/09:00pm -4.5 -11.6 -4.8 98 -0.1 WSW 24 37 13 20 - - 0.0
27/08:37pm -4.5 -12.8 -4.8 98 -0.1 WSW 30 48 16 26 - - 0.0
27/08:30pm -4.5 -12.0 -4.8 98 -0.1 W 26 43 14 23 - - 0.0
27/08:00pm -4.5 -12.4 -4.8 98 -0.1 WSW 28 48 15 26 - - 0.0
27/07:55pm -4.5 -12.4 -4.8 98 -0.1 W 28 48 15 26 - - 0.0
27/07:30pm -4.4 -11.9 -4.7 98 -0.1 WSW 26 43 14 23 - - 0.0
27/07:00pm -4.3 -13.5 -4.6 98 -0.1 W 35 50 19 27 - - 0.0
27/06:53pm -4.4 -12.7 -4.7 98 -0.1 W 30 48 16 26 - - 0.0
27/06:30pm -4.3 -12.9 -4.6 98 -0.1 W 32 44 17 24 - - 0.0
27/06:00pm -4.5 -13.2 -4.8 98 -0.1 WNW 32 44 17 24 - - 0.0
27/05:30pm -4.6 -12.5 -4.9 98 -0.1 WNW 28 43 15 23 - - 0.0
27/05:05pm -4.6 -12.5 -4.9 98 -0.1 WNW 28 46 15 25 - - 0.0
27/05:00pm -4.6 -12.5 -4.9 98 -0.1 WNW 28 41 15 22 - - 0.0
27/04:30pm -4.6 -12.1 -4.9 98 -0.1 W 26 39 14 21 - - 0.0
27/04:00pm -4.4 -11.5 -4.7 98 -0.1 W 24 35 13 19 - - 0.0
27/03:30pm -4.4 -12.3 -4.7 98 -0.1 W 28 37 15 20 - - 0.0
27/03:00pm -4.5 -11.6 -4.8 98 -0.1 W 24 35 13 19 - - 0.0
27/02:36pm -4.6 -12.9 -4.9 98 -0.1 W 30 48 16 26 - - 0.0
27/02:30pm -4.6 -13.3 -4.9 98 -0.1 WSW 32 48 17 26 - - 0.0
27/02:16pm -4.6 -13.5 -4.9 98 -0.1 WSW 33 54 18 29 - - 0.0
27/02:00pm -4.7 -13.4 -5.0 98 -0.1 W 32 46 17 25 - - 0.0
27/01:44pm -4.8 -13.5 -5.1 98 -0.1 W 32 50 17 27 - - 0.0
27/01:30pm -4.8 -12.7 -5.1 98 -0.1 W 28 44 15 24 - - 0.0
27/01:00pm -4.9 -12.5 -5.2 98 -0.1 WSW 26 44 14 24 - - 0.0
27/12:31pm -5.2 -14.1 -5.5 98 -0.1 W 33 52 18 28 - - 0.0
27/12:30pm -5.2 -14.1 -5.5 98 -0.1 W 33 48 18 26 - - 0.0
27/12:06pm -5.2 -13.2 -5.6 97 -0.1 W 28 46 15 25 - - 0.0
27/12:00pm -5.2 -13.6 -5.6 97 -0.1 W 30 44 16 24 - - 0.0
27/11:30am -5.6 -14.6 -6.0 97 -0.1 WSW 33 54 18 29 - - 0.0
27/11:00am -5.6 -15.3 -6.0 97 -0.1 WSW 37 61 20 33 - - 0.0
27/10:44am -5.7 -15.1 -6.1 97 -0.1 WSW 35 57 19 31 - - 0.0
27/10:30am -5.8 -15.2 -6.2 97 -0.1 WSW 35 50 19 27 - - 0.0
27/10:00am -6.1 -15.1 -6.6 96 -0.1 W 33 50 18 27 - - 0.0
27/09:30am -6.2 -16.0 -6.7 96 -0.1 WSW 37 57 20 31 - - 0.0
27/09:00am -6.5 -16.7 -7.0 96 -0.1 W 39 61 21 33 - - 0.0
27/08:34am -6.5 -16.3 -7.0 96 -0.1 WSW 37 56 20 30 - - 0.0
27/08:30am -6.6 -16.8 -7.3 95 0.0 W 39 56 21 30 - - 0.0
27/08:00am -7.0 -17.7 -7.7 95 -0.1 W 41 61 22 33 - - 0.0
27/07:30am -7.2 -18.3 -7.9 95 -0.1 W 43 61 23 33 - - 0.0
27/07:00am -7.3 -18.9 -8.0 95 -0.1 WNW 46 69 25 37 - - 0.0
27/06:51am -7.3 -19.3 -8.0 95 -0.1 WNW 48 67 26 36 - - 0.0
27/06:30am -7.4 -19.0 -8.1 95 -0.1 WNW 46 59 25 32 - - 0.0
27/06:00am -7.5 -19.9 -8.2 95 -0.1 WNW 50 59 27 32 - - 0.0
27/05:30am -7.5 -19.9 -8.2 95 -0.1 WNW 50 61 27 33 - - 0.0
27/05:00am -7.4 -21.1 -8.1 95 -0.1 WNW 57 74 31 40 - - 0.0
27/04:38am -7.6 -21.2 -8.3 95 -0.1 WNW 56 74 30 40 - - 0.0
27/04:30am -7.5 -21.1 -8.2 95 -0.1 WNW 56 72 30 39 - - 0.0
27/04:06am -7.4 -20.6 -8.1 95 -0.1 W 54 72 29 39 - - 0.0
27/04:00am -7.3 -20.5 -8.0 95 -0.1 W 54 70 29 38 - - 0.0
27/03:30am -7.3 -21.4 -8.0 95 -0.1 WNW 59 78 32 42 - - 0.0
27/03:00am -7.2 -20.7 -7.9 95 -0.1 WNW 56 82 30 44 - - 0.0
27/02:30am -7.1 -20.8 -7.8 95 -0.1 WNW 57 78 31 42 - - 0.0
27/02:01am -6.9 -19.3 -7.6 95 0.0 WNW 50 69 27 37 - - 0.0
27/02:00am -6.9 -19.3 -7.6 95 0.0 WNW 50 67 27 36 - - 0.0
27/01:32am -7.0 -18.6 -7.5 96 -0.1 WNW 46 65 25 35 - - 0.0
27/01:30am -7.0 -19.0 -7.5 96 -0.1 WNW 48 65 26 35 - - 0.0
27/01:00am -7.3 -21.4 -7.8 96 -0.1 NW 59 72 32 39 - - 0.0
27/12:30am -6.8 -20.3 -7.3 96 -0.1 NW 56 76 30 41 - - 0.0
27/12:01am -6.7 -19.4 -7.2 96 -0.1 NW 52 74 28 40 - - 0.0
27/12:00am -6.7 -19.4 -7.2 96 -0.1 NW 52 67 28 36 - - 0.0
 
Date/Time
EST
Temp
°C
App
Temp
°C
Dew
Point
Rel
Hum
%
Delta-T
°C
Wind Press
QNH
hPa
Press
MSL
hPa
Rain
since 9 am
mm
Dir
 
Spd
km/h
Gust
km/h
Spd
kts
Gust
kts
26/11:30pm -7.0 -21.8 -7.5 96 -0.1 NW 63 83 34 45 - - 0.0
26/11:11pm -6.7 -21.1 -7.2 96 -0.1 NW 61 82 33 44 - - 0.0
26/11:00pm -6.7 -21.5 -7.2 96 -0.1 NW 63 76 34 41 - - 0.0
26/10:37pm -6.5 -20.5 -7.0 96 -0.1 NW 59 80 32 43 - - 0.0
26/10:30pm -6.5 -20.9 -7.0 96 -0.1 NW 61 74 33 40 - - 0.0
26/10:01pm -6.8 -20.3 -7.3 96 -0.1 WNW 56 76 30 41 - - 0.0
26/10:00pm -6.9 -20.0 -7.4 96 -0.1 WNW 54 69 29 37 - - 0.0
26/09:30pm -6.9 -18.9 -7.4 96 -0.1 WNW 48 70 26 38 - - 0.0
26/09:04pm -7.0 -19.7 -7.5 96 -0.1 WNW 52 74 28 40 - - 0.0
26/09:00pm -7.0 -19.7 -7.5 96 -0.1 WNW 52 69 28 37 - - 0.0
26/08:30pm -6.9 -17.9 -7.4 96 -0.1 WNW 43 61 23 33 - - 0.0
26/08:00pm -6.9 -20.4 -7.4 96 -0.1 WNW 56 80 30 43 - - 0.0
26/07:30pm -6.9 -19.2 -7.4 96 -0.1 WNW 50 72 27 39 - - 0.0

Other Formats:

Comma delimited format used in spreadsheet applications
http://www.bom.gov.au/fwo/IDN60801/IDN60801.95909.axf

JavaScript Object Notation format (JSON) in row-major order
http://www.bom.gov.au/fwo/IDN60801/IDN60801.95909.json